Embalse, Argentina
Current Conditions -  °F | °C
As of 2:00 AM on Sunday 21 Dec 2014 (Local Time) from SACO Reporting Station
Thunderstorm Thunderstorm  
Wind Chill: 61°   Ceiling: Unl
Heat Index: 61°   Visibility: 5mi
Dew Point: 37°   Wind: 18mph
Humidity: 42%   Direction: 180°S
Pressure: 29.91"   Gusts: NA
Location:  32.18°S, 64.42°W
Report Text: SACO 210500Z 18016KT 8000 TSRA SCT030FEW032 16/03 Q1013
Loading
Personal Weather Stations






























Interactive Weather Map New forecast layout! Learn more

10-Day Weather Forecast

Advertisements
Track Severe Weather on mobile